메인 페이지
METAR-TAF:

METAR-TAF

공항 :

엘 아리시 국제공항

아리시, 이집트

위도: 31-05N, 경도: 033-49E, 고도: 31m

현재 날씨관측

예보는 6 시간 0분 전, 02:00시(UTC)에 발표되었습니다.
남남동4kt
온도 22°C
습도 88%
기압 1007 hPa
시정 10km 이상
1500m 미만 상공 구름 및 적란운 없음

METAR: HEAR 210200Z 16004KT CAVOK 22/20 Q1007 NOSIG

시각: 10:00 (08:00 UTC)

예보

예보는 3 시간 0분 전, 05:00시(UTC)에 발표되었습니다.
예보 대상 시간: 21일 06시부터 22일 12시까지 (UTC)
남남서8kt
시정 10km 이상
고도 2500ft 상공 구름 조금

TAF: HEAR 210500Z 2106/2212 20008KT 9999 FEW025

4,000개 이상의 공항 관측 자료 및 예보 (METAR 및 TAF 보고).

지도상에서 검색 가능한 기상관측소가 노란 점과 빨간 점으로 표시되어 있습니다.

기상관측소 명을 보려면 표시 위로 마우스를 이동하세요.

날씨 관측과 예보를 보려면 클릭하세요.

지도 변경 : 확대하려면 엑스 표시가 있는 녹색 버튼, 축소하려면 빼기 표시가 있는 녹색 버튼, 다음 페이지의 지도를 보려면 녹색 화살표를 클릭하세요.


METAR-TAF: